Time;durP1;ratioP1;P1;durP2;ratioP2;P2;SDS_P1;SDS_P2;PMS_P1;PMS_P2;Temp;Humidity;BMP_temperature;BMP_pressure;BME280_temperature;BME280_humidity;BME280_pressure;Samples;Min_cycle;Max_cycle;Signal;HPM_P1;HPM_P2
2021/11/24 00:01:28;;;;;;;;;;;;;;;;;;6255365;22;19985;-96
2021/11/24 00:03:54;;;;;;;;;;;;;;;;;;6255768;23;19919;-95
2021/11/24 00:06:22;;;;;;;;;;;;;;;;;;6260874;23;19976;-96
2021/11/24 00:08:52;;;;;;;;;;;;;;;;;;6258452;23;19916;-96
2021/11/24 00:11:18;;;;;;;;;;;;;;;;;;6231156;23;19919;-95
2021/11/24 00:13:45;;;;;;;;;;;;;;;;;;6260536;23;19915;-94
2021/11/24 00:16:12;;;;;;;;;;;;;;;;;;6260039;23;19916;-96
2021/11/24 00:18:39;;;;;;;;;;;;;;;;;;6260114;23;19990;-96
2021/11/24 00:21:07;;;;;;;;;;;;;;;;;;6264487;23;19951;-96
2021/11/24 00:23:38;;;;;;;;;;;;;;;;;;6261926;23;19967;-95
2021/11/24 00:26:04;;;;;;;;;;;;;;;;;;6258789;23;19916;-96
2021/11/24 00:28:32;;;;;;;;;;;;;;;;;;6257531;23;19922;-96
2021/11/24 00:30:58;;;;;;;;;;;;;;;;;;6256787;23;19990;-95
2021/11/24 00:33:26;;;;;;;;;;;;;;;;;;6261969;23;19915;-92
2021/11/24 00:35:52;;;;;;;;;;;;;;;;;;6260758;23;19922;-94
2021/11/24 00:38:21;;;;;;;;;;;;;;;;;;6260262;23;19926;-96
2021/11/24 00:40:54;;;;;;;;;;;;;;;;;;6261580;22;19970;-96
2021/11/24 00:43:21;;;;;;;;;;;;;;;;;;6257993;22;19919;-93
2021/11/24 00:45:47;;;;;;;;;;;;;;;;;;6256616;23;19938;-96
2021/11/24 00:48:15;;;;;;;;;;;;;;;;;;6257613;23;19959;-96
2021/11/24 00:50:49;;;;;;;;;;;;;;;;;;6258390;22;19967;-96
2021/11/24 00:53:15;;;;;;;;;;;;;;;;;;6263362;23;19938;-94
2021/11/24 00:55:42;;;;;;;;;;;;;;;;;;6249362;22;19963;-96
2021/11/24 00:58:12;;;;;;;;;;;;;;;;;;6263129;22;20392;-96
2021/11/24 01:00:59;;;;;;;;;;;;;;;;;;6232613;23;19903;-96
2021/11/24 01:03:26;;;;;;;;;;;;;;;;;;6261398;23;19919;-95
2021/11/24 01:05:53;;;;;;;;;;;;;;;;;;6256997;23;19915;-91
2021/11/24 01:08:20;;;;;;;;;;;;;;;;;;6260101;23;19916;-96
2021/11/24 01:10:47;;;;;;;;;;;;;;;;;;6259750;23;19915;-96
2021/11/24 01:13:13;;;;;;;;;;;;;;;;;;6259793;23;19923;-96
2021/11/24 01:15:40;;;;;;;;;;;;;;;;;;6261726;23;19920;-96
2021/11/24 01:18:06;;;;;;;;;;;;;;;;;;6264134;23;19935;-95
2021/11/24 01:25:54;;;;;;;;;;;;;;;;;;6263702;23;19915;-96
2021/11/24 01:28:21;;;;;;;;;;;;;;;;;;6248709;22;19900;-96
2021/11/24 01:30:47;;;;;;;;;;;;;;;;;;6264148;23;19922;-94
2021/11/24 01:33:13;;;;;;;;;;;;;;;;;;6259856;23;20618;-96
2021/11/24 01:35:40;;;;;;;;;;;;;;;;;;6261416;23;19920;-96
2021/11/24 01:38:06;;;;;;;;;;;;;;;;;;6263139;23;19919;-93
2021/11/24 01:40:35;;;;;;;;;;;;;;;;;;6260899;23;19915;-93
2021/11/24 01:43:02;;;;;;;;;;;;;;;;;;6239263;23;19922;-92
2021/11/24 01:45:28;;;;;;;;;;;;;;;;;;6264269;23;19912;-95
2021/11/24 01:47:54;;;;;;;;;;;;;;;;;;6266267;23;20106;-93
2021/11/24 01:50:23;;;;;;;;;;;;;;;;;;6263021;23;19926;-96
2021/11/24 01:52:58;;;;;;;;;;;;;;;;;;6257723;23;20241;-96
2021/11/24 01:55:24;;;;;;;;;;;;;;;;;;6260023;23;19998;-94
2021/11/24 01:57:52;;;;;;;;;;;;;;;;;;6256962;23;19916;-96
2021/11/24 02:00:19;;;;;;;;;;;;;;;;;;6261660;23;19915;-96
2021/11/24 02:02:45;;;;;;;;;;;;;;;;;;6258970;23;20336;-95
2021/11/24 02:05:16;;;;;;;;;;;;;;;;;;6251339;22;19936;-95
2021/11/24 02:07:43;;;;;;;;;;;;;;;;;;6263293;23;19938;-96
2021/11/24 02:10:09;;;;;;;;;;;;;;;;;;6256519;23;19938;-96
2021/11/24 02:12:37;;;;;;;;;;;;;;;;;;6259814;23;19942;-96
2021/11/24 02:15:04;;;;;;;;;;;;;;;;;;6259584;23;19942;-95
2021/11/24 02:17:30;;;;;;;;;;;;;;;;;;6257595;23;19919;-96
2021/11/24 02:19:57;;;;;;;;;;;;;;;;;;6258571;23;19931;-95
2021/11/24 02:22:23;;;;;;;;;;;;;;;;;;6256643;23;19919;-96
2021/11/24 02:24:49;;;;;;;;;;;;;;;;;;6258191;23;19995;-94
2021/11/24 02:27:16;;;;;;;;;;;;;;;;;;6259350;23;19920;-96
2021/11/24 02:29:45;;;;;;;;;;;;;;;;;;6257771;23;19935;-93
2021/11/24 02:34:51;;;;;;;;;;;;;;;;;;6254258;23;19922;-94
2021/11/24 02:37:23;;;;;;;;;;;;;;;;;;6259074;23;19935;-94
2021/11/24 02:39:51;;;;;;;;;;;;;;;;;;6260862;23;19920;-95
2021/11/24 02:42:20;;;;;;;;;;;;;;;;;;6258940;23;19899;-96
2021/11/24 02:44:54;;;;;;;;;;;;;;;;;;6263157;23;19926;-96
2021/11/24 02:47:22;;;;;;;;;;;;;;;;;;6265212;23;19922;-96
2021/11/24 02:49:48;;;;;;;;;;;;;;;;;;6260281;23;19927;-95
2021/11/24 02:52:15;;;;;;;;;;;;;;;;;;6254936;23;20002;-96
2021/11/24 02:54:41;;;;;;;;;;;;;;;;;;6260831;23;19907;-95
2021/11/24 02:57:13;;;;;;;;;;;;;;;;;;6267602;23;19926;-96
2021/11/24 03:02:27;;;;;;;;;;;;;;;;;;6265243;23;19916;-95
2021/11/24 03:04:54;;;;;;;;;;;;;;;;;;6266837;23;19915;-95
2021/11/24 03:17:59;;;;;;;;;;;;;;;;;;6271900;22;19922;-96
2021/11/24 03:20:27;;;;;;;;;;;;;;;;;;6262160;23;19914;-96
2021/11/24 03:23:02;;;;;;;;;;;;;;;;;;6238334;23;19903;-96
2021/11/24 03:25:31;;;;;;;;;;;;;;;;;;6253920;23;19922;-96
2021/11/24 03:27:57;;;;;;;;;;;;;;;;;;6258554;23;19970;-96
2021/11/24 03:30:33;;;;;;;;;;;;;;;;;;6260848;23;19916;-95
2021/11/24 03:33:02;;;;;;;;;;;;;;;;;;6264685;23;19919;-96
2021/11/24 03:35:29;;;;;;;;;;;;;;;;;;6262597;23;19915;-96
2021/11/24 03:37:55;;;;;;;;;;;;;;;;;;6248844;22;20011;-95
2021/11/24 03:40:21;;;;;;;;;;;;;;;;;;6223192;23;19950;-94
2021/11/24 03:42:49;;;;;;;;;;;;;;;;;;6228048;23;19964;-96
2021/11/24 03:45:15;;;;;;;;;;;;;;;;;;6225962;23;19967;-95
2021/11/24 03:47:43;;;;;;;;;;;;;;;;;;6231628;22;19920;-96
2021/11/24 03:52:57;;;;;;;;;;;;;;;;;;6234401;23;19907;-96
2021/11/24 03:55:24;;;;;;;;;;;;;;;;;;6232397;23;19967;-96
2021/11/24 03:57:50;;;;;;;;;;;;;;;;;;6227792;23;19927;-96
2021/11/24 04:00:19;;;;;;;;;;;;;;;;;;6247894;23;19942;-96
2021/11/24 04:02:45;;;;;;;;;;;;;;;;;;6260549;23;20010;-94
2021/11/24 04:05:11;;;;;;;;;;;;;;;;;;6258158;23;19934;-94
2021/11/24 04:07:38;;;;;;;;;;;;;;;;;;6257322;23;19994;-96
2021/11/24 04:10:04;;;;;;;;;;;;;;;;;;6258508;23;19938;-94
2021/11/24 04:12:34;;;;;;;;;;;;;;;;;;6267252;23;19990;-96
2021/11/24 04:15:00;;;;;;;;;;;;;;;;;;6267318;23;19915;-93
2021/11/24 04:17:26;;;;;;;;;;;;;;;;;;6262955;23;19927;-96
2021/11/24 04:19:53;;;;;;;;;;;;;;;;;;6262317;23;19915;-94
2021/11/24 04:22:19;;;;;;;;;;;;;;;;;;6261253;23;19915;-96
2021/11/24 04:24:46;;;;;;;;;;;;;;;;;;6263890;23;19961;-96
2021/11/24 04:27:12;;;;;;;;;;;;;;;;;;6259575;23;19935;-95
2021/11/24 04:29:40;;;;;;;;;;;;;;;;;;6261118;23;19919;-96
2021/11/24 04:32:07;;;;;;;;;;;;;;;;;;6258448;23;19920;-96
2021/11/24 04:34:33;;;;;;;;;;;;;;;;;;6251680;22;20248;-96
2021/11/24 04:37:00;;;;;;;;;;;;;;;;;;6260011;23;19912;-96
2021/11/24 04:39:27;;;;;;;;;;;;;;;;;;6258128;23;19903;-95
2021/11/24 04:41:54;;;;;;;;;;;;;;;;;;6233411;23;19942;-96
2021/11/24 04:44:20;;;;;;;;;;;;;;;;;;6256106;23;19920;-95
2021/11/24 04:46:47;;;;;;;;;;;;;;;;;;6255989;23;19942;-95
2021/11/24 04:49:19;;;;;;;;;;;;;;;;;;6257234;23;20401;-96
2021/11/24 04:51:46;;;;;;;;;;;;;;;;;;6256410;23;19946;-95
2021/11/24 04:54:12;;;;;;;;;;;;;;;;;;6257169;23;19942;-95
2021/11/24 04:56:38;;;;;;;;;;;;;;;;;;6258507;23;19968;-96
2021/11/24 04:59:05;;;;;;;;;;;;;;;;;;6261923;23;19923;-96
2021/11/24 05:01:31;;;;;;;;;;;;;;;;;;6258374;23;19991;-94
2021/11/24 05:06:38;;;;;;;;;;;;;;;;;;6259302;23;19973;-96
2021/11/24 05:09:04;;;;;;;;;;;;;;;;;;6265660;23;19916;-94
2021/11/24 05:11:30;;;;;;;;;;;;;;;;;;6262152;23;19920;-96
2021/11/24 05:13:59;;;;;;;;;;;;;;;;;;6263448;23;19915;-96
2021/11/24 05:16:30;;;;;;;;;;;;;;;;;;6264406;23;19943;-96
2021/11/24 05:19:13;;;;;;;;;;;;;;;;;;6263059;23;19971;-96
2021/11/24 05:21:40;;;;;;;;;;;;;;;;;;6264587;23;19987;-94
2021/11/24 05:24:06;;;;;;;;;;;;;;;;;;6260454;23;19920;-95
2021/11/24 05:26:34;;;;;;;;;;;;;;;;;;6259687;23;19960;-93
2021/11/24 05:29:00;;;;;;;;;;;;;;;;;;6257179;23;19922;-95
2021/11/24 05:31:27;;;;;;;;;;;;;;;;;;6257987;23;19926;-95
2021/11/24 05:33:58;;;;;;;;;;;;;;;;;;6262467;23;19900;-96
2021/11/24 05:36:31;;;;;;;;;;;;;;;;;;6240042;23;19987;-96
2021/11/24 05:38:57;;;;;;;;;;;;;;;;;;6262503;23;19915;-95
2021/11/24 05:41:24;;;;;;;;;;;;;;;;;;6235070;23;20370;-96
2021/11/24 05:46:42;;;;;;;;;;;;;;;;;;6262936;23;19954;-96
2021/11/24 05:49:11;;;;;;;;;;;;;;;;;;6227871;23;19904;-96
2021/11/24 05:54:37;;;;;;;;;;;;;;;;;;6240699;22;19923;-96
2021/11/24 05:57:04;;;;;;;;;;;;;;;;;;6219389;23;19992;-96
2021/11/24 06:02:15;;;;;;;;;;;;;;;;;;6226994;23;20379;-95
2021/11/24 06:04:41;;;;;;;;;;;;;;;;;;6234684;23;19912;-94
2021/11/24 06:07:14;;;;;;;;;;;;;;;;;;6203801;23;19924;-93
2021/11/24 06:09:42;;;;;;;;;;;;;;;;;;6229792;23;19916;-96
2021/11/24 06:12:08;;;;;;;;;;;;;;;;;;6229701;23;19942;-94
2021/11/24 06:14:34;;;;;;;;;;;;;;;;;;6230715;23;19920;-96
2021/11/24 06:17:04;;;;;;;;;;;;;;;;;;6229275;23;19920;-96
2021/11/24 06:19:30;;;;;;;;;;;;;;;;;;6229061;23;19915;-96
2021/11/24 06:24:42;;;;;;;;;;;;;;;;;;6229254;23;19991;-96
2021/11/24 06:27:12;;;;;;;;;;;;;;;;;;6237131;22;19915;-96
2021/11/24 06:29:44;;;;;;;;;;;;;;;;;;6258604;23;19915;-96
2021/11/24 06:32:19;;;;;;;;;;;;;;;;;;6267473;23;19910;-96
2021/11/24 06:37:32;;;;;;;;;;;;;;;;;;6265289;22;19911;-96
2021/11/24 06:40:00;;;;;;;;;;;;;;;;;;6272017;22;19899;-96
2021/11/24 06:42:34;;;;;;;;;;;;;;;;;;6270511;22;19915;-96
2021/11/24 06:52:41;;;;;;;;;;;;;;;;;;6263156;22;19919;-96
2021/11/24 06:55:09;;;;;;;;;;;;;;;;;;6265373;23;19899;-96
2021/11/24 06:57:35;;;;;;;;;;;;;;;;;;6262147;22;19915;-93
2021/11/24 07:00:01;;;;;;;;;;;;;;;;;;6261103;23;19942;-96
2021/11/24 07:02:28;;;;;;;;;;;;;;;;;;6257348;23;19960;-93
2021/11/24 07:07:34;;;;;;;;;;;;;;;;;;6214199;22;19935;-95
2021/11/24 07:10:14;;;;;;;;;;;;;;;;;;6238755;22;19916;-96
2021/11/24 07:12:41;;;;;;;;;;;;;;;;;;6265081;23;19916;-94
2021/11/24 07:15:07;;;;;;;;;;;;;;;;;;6263825;23;19935;-96
2021/11/24 07:17:34;;;;;;;;;;;;;;;;;;6262536;23;19923;-95
2021/11/24 07:20:10;;;;;;;;;;;;;;;;;;6265784;22;19919;-96
2021/11/24 07:22:36;;;;;;;;;;;;;;;;;;6262011;22;19941;-96
2021/11/24 07:25:04;;;;;;;;;;;;;;;;;;6265912;23;19907;-96
2021/11/24 07:27:30;;;;;;;;;;;;;;;;;;6261767;23;19912;-96
2021/11/24 07:29:58;;;;;;;;;;;;;;;;;;6258624;23;19931;-96
2021/11/24 07:32:37;;;;;;;;;;;;;;;;;;6259526;23;19932;-96
2021/11/24 07:35:03;;;;;;;;;;;;;;;;;;6234333;23;19942;-95
2021/11/24 07:37:31;;;;;;;;;;;;;;;;;;6261621;23;19920;-96
2021/11/24 07:39:58;;;;;;;;;;;;;;;;;;6259120;22;19959;-95
2021/11/24 07:42:27;;;;;;;;;;;;;;;;;;6259451;23;19919;-96
2021/11/24 07:44:56;;;;;;;;;;;;;;;;;;6262605;23;19920;-96
2021/11/24 07:47:31;;;;;;;;;;;;;;;;;;6258640;23;19990;-96
2021/11/24 07:49:58;;;;;;;;;;;;;;;;;;6266724;23;19923;-96
2021/11/24 07:52:26;;;;;;;;;;;;;;;;;;6263770;23;19915;-96
2021/11/24 07:54:53;;;;;;;;;;;;;;;;;;6258905;23;19919;-96
2021/11/24 07:57:20;;;;;;;;;;;;;;;;;;6259297;23;19938;-95
2021/11/24 07:59:47;;;;;;;;;;;;;;;;;;6256529;23;20468;-93
2021/11/24 08:02:18;;;;;;;;;;;;;;;;;;6262437;23;19934;-96
2021/11/24 08:04:49;;;;;;;;;;;;;;;;;;6254685;23;19915;-96
2021/11/24 08:10:02;;;;;;;;;;;;;;;;;;6261491;22;19927;-96
2021/11/24 08:12:28;;;;;;;;;;;;;;;;;;6259255;23;20622;-96
2021/11/24 08:14:57;;;;;;;;;;;;;;;;;;6260789;22;19916;-96
2021/11/24 08:17:27;;;;;;;;;;;;;;;;;;6262870;23;19899;-96
2021/11/24 08:19:59;;;;;;;;;;;;;;;;;;6259173;23;19986;-96
2021/11/24 08:25:03;;;;;;;;;;;;;;;;;;6255138;22;19919;-96
2021/11/24 08:27:30;;;;;;;;;;;;;;;;;;6261648;23;19919;-92
2021/11/24 08:30:06;;;;;;;;;;;;;;;;;;6259050;23;19922;-96
2021/11/24 08:32:32;;;;;;;;;;;;;;;;;;6257391;22;19931;-96
2021/11/24 08:35:10;;;;;;;;;;;;;;;;;;6262641;23;20455;-94
2021/11/24 08:37:58;;;;;;;;;;;;;;;;;;6229842;22;19935;-96
2021/11/24 08:40:25;;;;;;;;;;;;;;;;;;6236683;23;20407;-96
2021/11/24 08:45:36;;;;;;;;;;;;;;;;;;6263295;22;19998;-94
2021/11/24 08:48:05;;;;;;;;;;;;;;;;;;6260881;23;19919;-95
2021/11/24 08:50:32;;;;;;;;;;;;;;;;;;6255648;23;19919;-95
2021/11/24 08:52:58;;;;;;;;;;;;;;;;;;6259856;23;19915;-93
2021/11/24 08:55:25;;;;;;;;;;;;;;;;;;6257273;23;19919;-94
2021/11/24 08:57:51;;;;;;;;;;;;;;;;;;6259023;23;19943;-94
2021/11/24 09:00:22;;;;;;;;;;;;;;;;;;6264828;23;19922;-96
2021/11/24 09:03:00;;;;;;;;;;;;;;;;;;6241234;23;19899;-96
2021/11/24 09:08:07;;;;;;;;;;;;;;;;;;6262297;22;19903;-96
2021/11/24 09:13:05;;;;;;;;;;;;;;;;;;6248265;22;19915;-94
2021/11/24 09:15:31;;;;;;;;;;;;;;;;;;6264441;23;20286;-96
2021/11/24 09:17:57;;;;;;;;;;;;;;;;;;6258139;23;19919;-95
2021/11/24 09:26:00;;;;;;;;;;;;;;;;;;6258669;23;19899;-96
2021/11/24 09:28:30;;;;;;;;;;;;;;;;;;6260794;22;19919;-96
2021/11/24 09:30:56;;;;;;;;;;;;;;;;;;6260262;23;19919;-95
2021/11/24 09:33:22;;;;;;;;;;;;;;;;;;6266107;22;19926;-96
2021/11/24 09:35:49;;;;;;;;;;;;;;;;;;6269954;23;19922;-96
2021/11/24 09:38:23;;;;;;;;;;;;;;;;;;6259044;23;19946;-96
2021/11/24 09:41:02;;;;;;;;;;;;;;;;;;6262043;23;19935;-96
2021/11/24 09:43:28;;;;;;;;;;;;;;;;;;6260265;23;20314;-92
2021/11/24 09:45:54;;;;;;;;;;;;;;;;;;6261689;23;19919;-93
2021/11/24 09:50:56;;;;;;;;;;;;;;;;;;6222665;22;19915;-95
2021/11/24 09:56:12;;;;;;;;;;;;;;;;;;6255901;22;21134;-96
2021/11/24 09:58:46;;;;;;;;;;;;;;;;;;6238844;23;19915;-95
2021/11/24 10:01:12;;;;;;;;;;;;;;;;;;6265192;23;19915;-95
2021/11/24 10:03:39;;;;;;;;;;;;;;;;;;6261321;23;19923;-95
2021/11/24 10:06:05;;;;;;;;;;;;;;;;;;6256233;23;19916;-95
2021/11/24 10:08:33;;;;;;;;;;;;;;;;;;6258145;23;19964;-96
2021/11/24 10:11:00;;;;;;;;;;;;;;;;;;6260661;23;19963;-95
2021/11/24 10:13:27;;;;;;;;;;;;;;;;;;6263006;23;19927;-95
2021/11/24 10:15:55;;;;;;;;;;;;;;;;;;6256852;23;19938;-95
2021/11/24 10:18:21;;;;;;;;;;;;;;;;;;6261903;23;19915;-96
2021/11/24 10:20:48;;;;;;;;;;;;;;;;;;6260768;23;19916;-94
2021/11/24 10:23:14;;;;;;;;;;;;;;;;;;6259659;23;19915;-95
2021/11/24 10:25:41;;;;;;;;;;;;;;;;;;6235228;23;19953;-96
2021/11/24 10:28:13;;;;;;;;;;;;;;;;;;6260636;23;19916;-96
2021/11/24 10:30:39;;;;;;;;;;;;;;;;;;6261392;22;19919;-96
2021/11/24 10:33:07;;;;;;;;;;;;;;;;;;6268922;22;19919;-96
2021/11/24 10:35:33;;;;;;;;;;;;;;;;;;6265370;23;19930;-94
2021/11/24 10:37:59;;;;;;;;;;;;;;;;;;6260621;23;19899;-94
2021/11/24 10:40:27;;;;;;;;;;;;;;;;;;6263740;23;19922;-96
2021/11/24 10:42:56;;;;;;;;;;;;;;;;;;6262398;23;19938;-96
2021/11/24 10:45:25;;;;;;;;;;;;;;;;;;6258446;23;19919;-95
2021/11/24 10:47:51;;;;;;;;;;;;;;;;;;6259808;23;19924;-92
2021/11/24 10:52:58;;;;;;;;;;;;;;;;;;6257906;23;19927;-95
2021/11/24 10:55:25;;;;;;;;;;;;;;;;;;6259101;23;20670;-96
2021/11/24 10:57:51;;;;;;;;;;;;;;;;;;6255452;23;19923;-95
2021/11/24 11:03:12;;;;;;;;;;;;;;;;;;6273358;22;19938;-96
2021/11/24 11:05:42;;;;;;;;;;;;;;;;;;6239402;23;19956;-96
2021/11/24 11:08:09;;;;;;;;;;;;;;;;;;6263549;23;19916;-95
2021/11/24 11:10:36;;;;;;;;;;;;;;;;;;6257091;23;19926;-93
2021/11/24 11:13:02;;;;;;;;;;;;;;;;;;6260689;23;19899;-96
2021/11/24 11:15:28;;;;;;;;;;;;;;;;;;6256832;23;19942;-96
2021/11/24 11:17:59;;;;;;;;;;;;;;;;;;6253888;23;19919;-96
2021/11/24 11:20:28;;;;;;;;;;;;;;;;;;6263387;22;19946;-96
2021/11/24 11:22:54;;;;;;;;;;;;;;;;;;6259882;23;19924;-96
2021/11/24 11:25:22;;;;;;;;;;;;;;;;;;6262440;23;19963;-95
2021/11/24 11:27:51;;;;;;;;;;;;;;;;;;6259829;23;19927;-96
2021/11/24 11:30:19;;;;;;;;;;;;;;;;;;6259937;23;19919;-96
2021/11/24 11:33:03;;;;;;;87.07;19.30;;;;;;;;;;6256567;23;20191;-95
2021/11/24 11:35:31;;;;;;;82.03;17.87;;;;;;;;;;6255158;23;20444;-96
2021/11/24 11:37:58;;;;;;;80.93;19.60;;;;;;;;;;6252700;23;20746;-93
2021/11/24 11:40:26;;;;;;;77.80;19.07;;;;;;;;;;6250896;22;20445;-96
2021/11/24 11:42:56;;;;;;;81.10;20.50;;;;;;;;;;6256845;23;20420;-96
2021/11/24 11:45:22;;;;;;;;;;;;;;;;;;6265185;23;20274;-96
2021/11/24 11:47:51;;;;;;;78.13;19.07;;;;;;;;;;6264562;23;20176;-95
2021/11/24 11:50:37;;;;;;;84.47;20.50;;;;;;;;;;6258317;23;20404;-96
2021/11/24 11:53:20;;;;;;;79.67;19.27;;;;;;;;;;6255236;23;20421;-94
2021/11/24 11:55:48;;;;;;;79.97;19.13;;;;;;;;;;6252269;23;20516;-96
2021/11/24 12:25:56;;;;;;;79.30;19.40;;;;;;;;;;6237026;23;20468;-96
2021/11/24 12:29:09;;;;;;;76.90;17.40;;;;;;;;;;6258741;23;20460;-96
2021/11/24 12:50:58;;;;;;;80.60;21.27;;;;;;;;;;6214369;22;20445;-96
2021/11/24 13:10:03;;;;;;;85.67;23.10;;;;;;;;;;6208707;23;20480;-96
2021/11/24 13:23:59;;;;;;;79.30;18.20;;;;;;;;;;6255209;22;20471;-96
2021/11/24 13:26:55;;;;;;;75.57;19.00;;;;;;;;;;6254675;22;20453;-96
2021/11/24 13:29:24;;;;;;;78.10;18.20;;;;;;;;;;6258681;23;20412;-96
2021/11/24 13:31:53;;;;;;;75.00;16.93;;;;;;;;;;6258081;23;20434;-92
2021/11/24 13:34:27;;;;;;;75.27;17.23;;;;;;;;;;6264973;22;20411;-96
2021/11/24 13:36:54;;;;;;;74.47;16.73;;;;;;;;;;6255416;23;20484;-94
2021/11/24 13:39:26;;;;;;;85.33;19.23;;;;;;;;;;6252863;22;20411;-93
2021/11/24 13:41:53;;;;;;;78.97;19.20;;;;;;;;;;6252817;23;20420;-93
2021/11/24 13:44:19;;;;;;;78.60;18.47;;;;;;;;;;6253220;23;20418;-93
2021/11/24 13:46:48;;;;;;;78.97;18.77;;;;;;;;;;6255145;23;20416;-92
2021/11/24 13:49:17;;;;;;;80.03;20.30;;;;;;;;;;6254881;23;20471;-94
2021/11/24 13:51:44;;;;;;;81.20;19.03;;;;;;;;;;6254757;23;20420;-94
2021/11/24 13:54:12;;;;;;;80.70;19.20;;;;;;;;;;6249134;23;20425;-93
2021/11/24 13:56:47;;;;;;;85.00;20.77;;;;;;;;;;6246658;23;20461;-94
2021/11/24 13:59:16;;;;;;;82.37;20.87;;;;;;;;;;6248015;23;20438;-95
2021/11/24 14:01:45;;;;;;;80.27;20.17;;;;;;;;;;6251909;23;20436;-93
2021/11/24 14:04:13;;;;;;;84.07;21.97;;;;;;;;;;6251984;23;20412;-92
2021/11/24 14:28:21;;;;;;;85.20;21.63;;;;;;;;;;5126267;27;21823;-96
2021/11/24 14:30:51;;;;;;;85.20;23.60;;;;;;;;;;5121855;27;21095;-94
2021/11/24 14:33:18;;;;;;;;;;;;;;;;;;5119574;28;20372;-94
2021/11/24 14:46:47;;;;;;;;;;;;;;;;;;5079674;28;20288;-95
2021/11/24 14:54:35;;;;;;;;;;;;;;;;;;5092324;22;19936;-93
2021/11/24 14:57:07;;;;;;;;;;;;;;;;;;5076980;28;19927;-96
2021/11/24 14:59:34;;;;;;;;;;;;;;;;;;5080195;28;19921;-94
2021/11/24 15:07:28;;;;;;;;;;;;;;;;;;5084700;28;19935;-96
2021/11/24 15:10:06;;;;;;;;;;;;;;;;;;5135284;22;19925;-96
2021/11/24 15:12:53;;;;;;;;;;;;;;;;;;5087954;28;19926;-96
2021/11/24 15:18:03;;;;;;;;;;;;;;;;;;5078395;28;19929;-96
2021/11/24 15:20:29;;;;;;;;;;;;;;;;;;5079282;28;19928;-96
2021/11/24 15:22:55;;;;;;;;;;;;;;;;;;5077664;28;19931;-93
2021/11/24 15:30:35;;;;;;;;;;;;;;;;;;5092306;28;19927;-95
2021/11/24 15:33:01;;;;;;;;;;;;;;;;;;5089436;28;19921;-96
2021/11/24 15:35:36;;;;;;;;;;;;;;;;;;5092965;28;19924;-96
2021/11/24 15:38:22;;;;;;;;;;;;;;;;;;5081502;28;19982;-95
2021/11/24 15:40:51;;;;;;;;;;;;;;;;;;5072293;28;19928;-95
2021/11/24 15:43:17;;;;;;;;;;;;;;;;;;5072542;28;19936;-94
2021/11/24 15:48:30;;;;;;;;;;;;;;;;;;5214163;22;19943;-96
2021/11/24 15:50:59;;;;;;;;;;;;;;;;;;5080465;28;19928;-96
2021/11/24 15:53:27;;;;;;;;;;;;;;;;;;5080604;28;19975;-96
2021/11/24 15:55:54;;;;;;;;;;;;;;;;;;5063659;28;19928;-95
2021/11/24 15:58:20;;;;;;;;;;;;;;;;;;5076659;28;19963;-95
2021/11/24 16:00:47;;;;;;;;;;;;;;;;;;5076380;28;20511;-95
2021/11/24 16:03:13;;;;;;;;;;;;;;;;;;5078566;28;19960;-95
2021/11/24 16:05:40;;;;;;;;;;;;;;;;;;5084697;28;19916;-95
2021/11/24 16:08:06;;;;;;;;;;;;;;;;;;5087100;28;19928;-96
2021/11/24 16:10:33;;;;;;;;;;;;;;;;;;5082250;28;19976;-95
2021/11/24 16:12:59;;;;;;;;;;;;;;;;;;5073796;28;19932;-94
2021/11/24 16:15:26;;;;;;;;;;;;;;;;;;5070898;28;20051;-94
2021/11/24 16:17:52;;;;;;;;;;;;;;;;;;5073187;28;19928;-94
2021/11/24 16:20:21;;;;;;;;;;;;;;;;;;5075072;28;19935;-95
2021/11/24 16:25:27;;;;;;;;;;;;;;;;;;5075165;28;19928;-95
2021/11/24 16:35:45;;;;;;;;;;;;;;;;;;5069200;28;19952;-95
2021/11/24 16:38:14;;;;;;;;;;;;;;;;;;5073909;28;19905;-96
2021/11/24 16:40:41;;;;;;;;;;;;;;;;;;5070385;28;19951;-96
2021/11/24 16:43:15;;;;;;;;;;;;;;;;;;5066827;28;19948;-96
2021/11/24 16:45:48;;;;;;;;;;;;;;;;;;5075464;28;19928;-95
2021/11/24 16:50:56;;;;;;;;;;;;;;;;;;5066669;28;19928;-96
2021/11/24 16:53:25;;;;;;;;;;;;;;;;;;5074386;28;20267;-96
2021/11/24 16:55:52;;;;;;;;;;;;;;;;;;5071879;28;19958;-96
2021/11/24 17:11:33;;;;;;;;;;;;;;;;;;5082400;28;19905;-96
2021/11/24 17:40:16;;;;;;;;;;;;;;;;;;5238718;22;19924;-96
2021/11/24 17:42:43;;;;;;;;;;;;;;;;;;5073517;28;19921;-96
2021/11/24 17:45:09;;;;;;;;;;;;;;;;;;5071698;28;19948;-96
